Flight Track Log - Related Links

Times and Time Zones

All times are in EST time to prevent confusion due to time zone crossing. See the AWI4036 flight status page for this flight to view local times or setup timezone preferences in your user account.

Time Position Orientation Groundspeed Altitude Reporting Facility
EST Latitude Longitude Course Direction KTS MPH feet Rate Location/Type
Sat 08:25:12 AM 39.8667 -75.2667 57° Northeast 170 196 700  Level Philadelphia TRACON
Sat 08:26:30 AM 39.8167 -75.3167 218° Southwest 200 230 4,200 2,565 Climbing Philadelphia TRACON
Sat 08:27:00 AM 40.0443 -74.9664 37° Northeast  Level Estimated
Sat 08:27:30 AM 39.7500 -75.2833 159° South 280 322 6,600  Level Philadelphia TRACON
Sat 08:28:00 AM 40.1015 -74.8746 37° Northeast  Level Estimated
Sat 08:28:30 AM 39.7500 -75.1833 90° East 317 365 9,400  Level Philadelphia TRACON
Sat 08:29:00 AM 40.1586 -74.7827 46° Northeast  Level Estimated
Sat 08:30:00 AM 40.2156 -74.6906 57° Northeast  Level Estimated
Sat 08:30:27 AM 39.7753 -74.9386 82° East 370 426 12,100  Level New York Center
Sat 08:31:27 AM 39.7886 -74.7933 83° East 391 450 13,300 1,664 Climbing New York Center
Sat 08:32:26 AM 39.8342 -74.6772 63° Northeast 378 435 15,400 1,950 Climbing New York Center
Sat 08:33:27 AM 39.9181 -74.5978 36° Northeast 354 407 17,200 1,587 Climbing New York Center
Sat 08:34:27 AM 40.0042 -74.5106 38° Northeast 360 414 18,600 1,450 Climbing New York Center
Sat 08:35:27 AM 40.0925 -74.4258 36° Northeast 385 443 20,100 1,550 Climbing New York Center
Sat 08:36:27 AM 40.1806 -74.3353 38° Northeast 396 456 21,700 1,450 Climbing New York Center
Sat 08:37:27 AM 40.2708 -74.2447 37° Northeast 402 463 23,000 1,050 Climbing New York Center
Sat 08:38:27 AM 40.3631 -74.1542 37° Northeast 402 463 23,800 500 Climbing New York Center
Sat 08:39:27 AM 40.4575 -74.0578 38° Northeast 407 468 24,000 100 Climbing New York Center
Sat 08:40:27 AM 40.5336 -73.9386 50° Northeast 412 474 24,000  Level New York Center
Sat 08:41:27 AM 40.5925 -73.8403 52° Northeast 419 482 24,000  Level New York Center
Sat 08:42:59 AM 40.7133 -73.6578 49° Northeast 418 481 24,000  Level Boston Center
Sat 08:44:02 AM 40.7994 -73.5339 47° Northeast 416 479 24,000  Level Boston Center
Sat 08:45:02 AM 40.8778 -73.4192 48° Northeast 419 482 24,000  Level Boston Center
Sat 08:46:03 AM 40.9536 -73.3050 49° Northeast 415 478 24,000  Level Boston Center
Sat 08:47:04 AM 41.0300 -73.1917 48° Northeast 415 478 24,000 -500 Level Boston Center
Sat 08:48:03 AM 41.1097 -73.0767 47° Northeast 423 487 23,000 -500 Descending Boston Center
Sat 08:49:04 AM 41.1744 -72.9311 59° Northeast 456 525 23,000  Level Boston Center
Sat 08:50:05 AM 41.2308 -72.7772 64° Northeast 464 534 23,000  Level Boston Center
Sat 08:51:05 AM 41.2925 -72.6158 63° Northeast 462 532 23,000  Level Boston Center
Sat 08:52:06 AM 41.3508 -72.4619 63° Northeast 462 532 23,000  Level Boston Center
Sat 08:53:09 AM 41.4067 -72.3089 64° Northeast 461 531 23,000  Level Boston Center
Sat 08:54:10 AM 41.4647 -72.1547 63° Northeast 463 533 23,000 -504 Level Boston Center
Sat 08:55:08 AM 41.5214 -72.0039 63° Northeast 459 528 22,000 -1,279 Descending Boston Center
Sat 08:56:12 AM 41.5775 -71.8361 66° East 452 520 20,400 -1,548 Descending Boston Center
Sat 08:57:12 AM 41.6331 -71.6881 63° Northeast 434 499 18,800 -1,587 Descending Boston Center
Sat 08:58:13 AM 41.6856 -71.5414 64° Northeast 414 476 17,200 -2,231 Descending Boston Center
Sat 08:59:13 AM 41.7322 -71.4131 64° Northeast 391 450 14,300 -2,750 Descending Boston Center
Sat 09:00:13 AM 41.7853 -71.2894 60° Northeast 385 443 11,700 -1,636 Descending Boston Center
Sat 09:01:14 AM 41.8383 -71.1639 60° Northeast 364 419 11,000 -341 Descending Boston Center
Sat 09:02:16 AM 41.8872 -71.0497 60° Northeast 355 409 11,000  Level Boston Center
Sat 09:02:54 AM 41.9167 -70.9833 59° Northeast 352 405 11,000  Level KA90
Sat 09:04:06 AM 41.9833 -70.8333 59° Northeast 348 400 11,000 -190 Level KA90
Sat 09:05:00 AM 42.0333 -70.7500 51° Northeast 319 367 10,600 -1,211 Descending KA90
Sat 09:06:00 AM 42.0833 -70.6500 56° Northeast 298 343 8,700 -1,182 Descending KA90
Sat 09:07:12 AM 42.1667 -70.6000 24° Northeast 275 316 8,000 -909 Descending KA90
Sat 09:08:12 AM 42.2333 -70.5833 10° North 277 319 6,700 -1,450 Descending KA90
Sat 09:09:12 AM 42.3167 -70.5667 North 250 288 5,100 -810 Descending KA90
Sat 09:10:18 AM 42.3667 -70.6333 315° West 252 290 5,000 -48 Descending KA90
Sat 09:11:18 AM 42.4167 -70.7000 315° West 242 278 5,000  Level KA90
Sat 09:12:13 AM 42.4667 -70.7500 324° Northwest 236 272 5,000 -157 Level KA90
Sat 09:13:13 AM 42.5000 -70.8000 312° West 206 237 4,700 -476 Descending KA90
Sat 09:14:19 AM 42.5333 -70.8667 304° West 157 181 4,000 -1,050 Descending KA90
Sat 09:15:13 AM 42.5333 -70.9167 270° West 169 194 2,600 -1,053 Descending KA90
Sat 09:16:13 AM 42.4833 -70.9333 194° South 151 174 2,000 -368 Descending KA90
Sat 09:17:07 AM 42.4500 -70.9667 216° Southwest 152 175 1,900 -421 Descending KA90
Sat 09:18:07 AM 42.4167 -70.9833 200° South 111 128 1,200 -694 Descending KA90
Sat 09:19:08 AM 42.3833 -70.9833 180° South 130 150 500 -689 Descending KA90

Login

Don't have an account? Register now (free) for customized features, flight alerts, and more!